createdAt,value
2018-01-20T00:00:51.509Z,99.90
2018-01-20T00:03:25.050Z,99.90
2018-01-20T00:05:59.428Z,99.90
2018-01-20T00:08:33.712Z,99.90
2018-01-20T00:11:19.169Z,99.90
2018-01-20T00:13:52.752Z,99.90
2018-01-20T00:16:27.182Z,99.90
2018-01-20T00:19:01.491Z,99.90
2018-01-20T00:21:35.049Z,99.90
2018-01-20T00:24:08.608Z,99.90
2018-01-20T00:26:43.028Z,99.90
2018-01-20T00:29:16.529Z,99.90
2018-01-20T00:31:50.247Z,99.90
2018-01-20T00:34:23.824Z,99.90
2018-01-20T00:36:58.141Z,99.90
2018-01-20T00:39:31.656Z,99.90
2018-01-20T00:42:05.955Z,99.90
2018-01-20T00:44:39.619Z,99.90
2018-01-20T00:47:13.284Z,99.90
2018-01-20T00:54:21.315Z,99.90
2018-01-20T00:56:54.999Z,99.90
2018-01-20T00:59:28.597Z,99.90
2018-01-20T01:02:03.122Z,99.90
2018-01-20T01:04:36.715Z,99.90
2018-01-20T01:07:10.303Z,99.90
2018-01-20T01:09:44.754Z,99.90
2018-01-20T01:12:18.365Z,99.90
2018-01-20T01:14:52.158Z,99.90
2018-01-20T01:17:26.472Z,99.90
2018-01-20T01:20:00.212Z,99.90
2018-01-20T01:22:33.810Z,99.90
2018-01-20T01:25:08.109Z,99.90
2018-01-20T01:27:42.508Z,99.90
2018-01-20T01:30:16.045Z,99.90
2018-01-20T01:32:49.603Z,99.90
2018-01-20T01:35:23.123Z,99.90
2018-01-20T01:37:56.731Z,99.90
2018-01-20T01:40:30.298Z,99.90
2018-01-20T01:43:04.668Z,99.90
2018-01-20T01:45:38.335Z,99.90
2018-01-20T01:48:12.658Z,99.90
2018-01-20T01:50:47.198Z,99.90
2018-01-20T01:53:20.731Z,99.90
2018-01-20T01:55:54.264Z,99.90
2018-01-20T01:58:27.895Z,99.90
2018-01-20T02:01:01.464Z,99.90
2018-01-20T02:03:35.056Z,99.90
2018-01-20T02:06:08.607Z,99.90
2018-01-20T02:08:42.281Z,99.90
2018-01-20T02:11:15.758Z,99.90
2018-01-20T02:13:49.304Z,99.90
2018-01-20T02:16:22.980Z,99.90
2018-01-20T02:18:57.323Z,99.90
2018-01-20T02:21:31.623Z,99.90
2018-01-20T02:24:05.183Z,99.90
2018-01-20T02:26:39.538Z,99.90
2018-01-20T02:29:13.246Z,99.90
2018-01-20T02:31:46.795Z,99.90
2018-01-20T02:34:20.465Z,99.90
2018-01-20T02:36:54.027Z,99.90
2018-01-20T02:39:27.511Z,99.90
2018-01-20T02:42:01.012Z,99.90
2018-01-20T02:44:34.775Z,99.90
2018-01-20T02:47:08.447Z,99.90
2018-01-20T02:49:41.955Z,99.90
2018-01-20T02:52:15.532Z,99.90
2018-01-20T02:54:49.232Z,99.90
2018-01-20T02:57:23.562Z,99.90
2018-01-20T02:59:58.084Z,99.90
2018-01-20T03:02:32.595Z,99.90
2018-01-20T03:05:06.189Z,99.90
2018-01-20T03:07:40.526Z,99.90
2018-01-20T03:10:14.190Z,99.90
2018-01-20T03:12:48.525Z,99.90
2018-01-20T03:15:22.041Z,99.90
2018-01-20T03:17:55.612Z,99.90
2018-01-20T03:20:30.060Z,99.90
2018-01-20T03:23:03.756Z,99.90
2018-01-20T03:25:37.337Z,99.90
2018-01-20T03:28:10.844Z,99.90
2018-01-20T03:30:45.384Z,99.90
2018-01-20T03:33:19.075Z,99.90
2018-01-20T03:35:52.618Z,99.90
2018-01-20T03:38:26.164Z,99.90
2018-01-20T03:40:59.683Z,99.90
2018-01-20T03:43:33.266Z,99.90
2018-01-20T03:46:06.803Z,99.90
2018-01-20T03:48:40.404Z,99.90
2018-01-20T03:51:13.955Z,99.90
2018-01-20T03:53:47.889Z,99.90
2018-01-20T03:56:21.437Z,99.90
2018-01-20T03:58:55.715Z,99.90
2018-01-20T04:01:29.418Z,99.90
2018-01-20T04:04:03.055Z,99.90
2018-01-20T04:06:36.574Z,99.90
2018-01-20T04:09:10.931Z,99.90
2018-01-20T04:11:45.437Z,99.90
2018-01-20T04:14:19.136Z,99.90
2018-01-20T04:16:52.832Z,99.90
2018-01-20T04:19:26.460Z,99.90
2018-01-20T04:22:00.034Z,99.90
2018-01-20T04:24:33.582Z,99.90
2018-01-20T04:27:07.139Z,99.90
2018-01-20T04:29:40.660Z,99.90
2018-01-20T04:32:15.072Z,99.90
2018-01-20T04:34:49.607Z,99.90
2018-01-20T04:37:23.310Z,99.90
2018-01-20T04:39:56.867Z,99.90
2018-01-20T04:42:31.219Z,99.90
2018-01-20T04:45:04.905Z,99.90
2018-01-20T04:47:39.215Z,99.90
2018-01-20T04:50:12.903Z,99.90
2018-01-20T04:52:46.550Z,99.90
2018-01-20T04:55:20.119Z,99.90
2018-01-20T04:57:53.667Z,99.90
2018-01-20T05:00:27.236Z,99.90
2018-01-20T05:03:00.980Z,99.90
2018-01-20T05:05:34.535Z,99.90
2018-01-20T05:08:08.239Z,99.90
2018-01-20T05:10:41.848Z,99.90
2018-01-20T05:13:15.580Z,99.90
2018-01-20T05:15:49.299Z,99.90
2018-01-20T05:18:22.853Z,99.90
2018-01-20T05:20:57.239Z,99.90
2018-01-20T05:23:31.674Z,99.90
2018-01-20T05:26:05.223Z,99.90
2018-01-20T05:28:38.900Z,99.90
2018-01-20T05:31:12.501Z,99.90
2018-01-20T05:33:46.003Z,99.90
2018-01-20T05:36:19.647Z,99.90
2018-01-20T05:38:53.259Z,99.90
2018-01-20T05:41:26.771Z,99.90
2018-01-20T05:44:00.415Z,99.90
2018-01-20T05:46:34.027Z,99.90
2018-01-20T05:49:07.587Z,99.90
2018-01-20T05:51:41.135Z,99.90
2018-01-20T05:54:15.408Z,99.90
2018-01-20T05:56:49.938Z,99.90
2018-01-20T05:59:23.542Z,99.90
2018-01-20T06:01:57.127Z,99.90
2018-01-20T06:04:31.545Z,99.90
2018-01-20T06:07:05.197Z,99.90
2018-01-20T06:09:38.936Z,99.90
2018-01-20T06:12:13.336Z,99.90
2018-01-20T06:14:47.097Z,99.90
2018-01-20T06:17:20.683Z,99.90
2018-01-20T06:19:54.303Z,99.90
2018-01-20T06:22:27.903Z,99.90
2018-01-20T06:25:02.208Z,99.90
2018-01-20T06:27:35.840Z,99.90
2018-01-20T06:30:10.126Z,99.90
2018-01-20T06:32:44.643Z,99.90
2018-01-20T06:35:18.391Z,99.90
2018-01-20T06:37:52.074Z,99.90
2018-01-20T06:40:25.639Z,99.90
2018-01-20T06:42:59.192Z,99.90
2018-01-20T06:45:33.572Z,99.90
2018-01-20T06:48:07.081Z,99.90
2018-01-20T06:50:40.755Z,99.90
2018-01-20T06:53:14.337Z,99.90
2018-01-20T06:55:47.842Z,99.90
2018-01-20T06:58:21.386Z,99.90
2018-01-20T07:00:55.837Z,99.90
2018-01-20T07:03:29.437Z,99.90
2018-01-20T07:06:03.795Z,99.90
2018-01-20T07:08:37.402Z,99.90
2018-01-20T07:11:11.116Z,99.90
2018-01-20T07:13:44.699Z,99.90
2018-01-20T07:16:18.299Z,99.90
2018-01-20T07:18:51.819Z,99.90
2018-01-20T07:21:26.074Z,99.90
2018-01-20T07:23:59.769Z,99.90
2018-01-20T07:26:33.285Z,99.90
2018-01-20T07:29:06.834Z,99.90
2018-01-20T07:31:41.168Z,99.90
2018-01-20T07:34:14.669Z,99.90
2018-01-20T07:36:48.216Z,99.90
2018-01-20T07:39:21.773Z,99.90
2018-01-20T07:41:56.186Z,99.90
2018-01-20T07:44:29.693Z,99.90
2018-01-20T07:47:03.656Z,99.90
2018-01-20T07:49:37.375Z,99.90
2018-01-20T07:52:10.912Z,99.90
2018-01-20T07:54:44.603Z,99.90
2018-01-20T07:57:18.090Z,99.90
2018-01-20T07:59:51.695Z,99.90
2018-01-20T08:02:27.164Z,99.90
2018-01-20T08:05:01.756Z,99.90
2018-01-20T08:07:36.679Z,99.90
2018-01-20T08:10:12.856Z,99.90
2018-01-20T08:12:48.680Z,99.90
2018-01-20T08:15:22.889Z,99.90
2018-01-20T08:17:57.035Z,99.90
2018-01-20T08:20:31.309Z,99.90
2018-01-20T08:23:05.219Z,99.90
2018-01-20T08:25:38.759Z,99.90
2018-01-20T08:28:12.328Z,99.90
2018-01-20T08:30:45.905Z,99.90
2018-01-20T08:33:19.555Z,99.90
2018-01-20T08:35:53.287Z,99.90
2018-01-20T08:38:26.946Z,99.90
2018-01-20T08:41:00.542Z,99.90
2018-01-20T08:43:34.166Z,99.90
2018-01-20T08:46:07.761Z,99.90
2018-01-20T08:48:41.343Z,99.90
2018-01-20T08:51:14.939Z,99.90
2018-01-20T08:53:48.433Z,99.90
2018-01-20T08:56:22.870Z,99.90
2018-01-20T08:58:56.579Z,99.90
2018-01-20T09:01:30.100Z,99.90
2018-01-20T09:04:03.586Z,99.90
2018-01-20T09:06:37.171Z,99.90
2018-01-20T09:09:10.734Z,99.90
2018-01-20T09:11:44.364Z,99.90
2018-01-20T09:14:18.011Z,99.90
2018-01-20T09:16:52.388Z,99.90
2018-01-20T09:19:26.006Z,99.90
2018-01-20T09:21:59.587Z,99.90
2018-01-20T09:24:33.067Z,99.90
2018-01-20T09:27:07.510Z,99.90
2018-01-20T09:29:41.019Z,99.90
2018-01-20T09:32:14.620Z,99.90
2018-01-20T09:34:48.287Z,99.90
2018-01-20T09:37:22.024Z,99.90
2018-01-20T09:39:55.527Z,99.90
2018-01-20T09:42:29.149Z,99.90
2018-01-20T09:45:03.410Z,99.90
2018-01-20T09:47:37.134Z,99.90
2018-01-20T09:50:10.703Z,99.90
2018-01-20T09:52:45.004Z,99.90
2018-01-20T09:55:18.519Z,99.90
2018-01-20T09:57:52.270Z,99.90
2018-01-20T10:00:25.939Z,99.90
2018-01-20T10:03:00.356Z,99.90
2018-01-20T10:05:33.933Z,99.90
2018-01-20T10:08:07.829Z,99.90
2018-01-20T10:10:42.285Z,99.90
2018-01-20T10:13:16.745Z,99.90
2018-01-20T10:15:50.420Z,99.90
2018-01-20T10:18:24.980Z,99.90
2018-01-20T10:20:58.775Z,99.90
2018-01-20T10:23:32.348Z,99.90
2018-01-20T10:26:05.940Z,99.90
2018-01-20T10:28:40.363Z,99.90
2018-01-20T10:31:13.872Z,99.90
2018-01-20T10:33:47.566Z,99.90
2018-01-20T10:36:21.991Z,99.90
2018-01-20T10:38:55.512Z,99.90
2018-01-20T10:41:29.015Z,99.90
2018-01-20T10:44:02.584Z,99.90
2018-01-20T10:46:36.883Z,99.90
2018-01-20T10:49:10.632Z,99.90
2018-01-20T10:51:44.138Z,99.90
2018-01-20T10:54:17.735Z,99.90
2018-01-20T10:56:51.293Z,99.90
2018-01-20T10:59:24.902Z,99.90
2018-01-20T11:01:58.476Z,99.90
2018-01-20T11:04:32.107Z,99.90
2018-01-20T11:07:05.687Z,99.90
2018-01-20T11:09:39.248Z,99.90
2018-01-20T11:12:13.689Z,99.90
2018-01-20T11:14:47.442Z,99.90
2018-01-20T11:17:21.003Z,98.60
2018-01-20T11:19:54.675Z,99.80
2018-01-20T11:22:28.364Z,99.90
2018-01-20T11:25:02.067Z,99.90
2018-01-20T11:27:35.620Z,99.90
2018-01-20T11:30:10.039Z,99.90
2018-01-20T11:32:43.760Z,99.90
2018-01-20T11:35:17.358Z,98.80
2018-01-20T11:37:51.087Z,98.50
2018-01-20T11:40:25.586Z,99.40
2018-01-20T11:42:59.263Z,99.30
2018-01-20T11:45:32.816Z,96.50
2018-01-20T11:48:07.297Z,95.10
2018-01-20T11:50:40.923Z,95.20
2018-01-20T11:53:14.490Z,94.30
2018-01-20T11:55:48.834Z,95.70
2018-01-20T11:58:22.398Z,95.60
2018-01-20T12:00:55.991Z,94.50
2018-01-20T12:03:29.637Z,92.90
2018-01-20T12:06:03.480Z,95.10
2018-01-20T12:08:37.769Z,94.60
2018-01-20T12:11:12.505Z,95.40
2018-01-20T12:13:46.198Z,95.40
2018-01-20T12:16:19.749Z,96.80
2018-01-20T12:18:53.430Z,96.70
2018-01-20T12:21:27.794Z,95.10
2018-01-20T12:24:01.538Z,95.10
2018-01-20T12:26:35.044Z,96.30
2018-01-20T12:29:09.311Z,96.90
2018-01-20T12:31:42.945Z,96.90
2018-01-20T12:34:16.507Z,95.90
2018-01-20T12:36:50.101Z,97.40
2018-01-20T12:39:23.716Z,95.90
2018-01-20T12:41:57.433Z,93.70
2018-01-20T12:44:31.115Z,92.90
2018-01-20T12:47:04.876Z,91.90
2018-01-20T12:49:38.428Z,92.80
2018-01-20T12:52:12.038Z,95.40
2018-01-20T12:54:45.588Z,94.30
2018-01-20T12:57:20.025Z,87.70
2018-01-20T12:59:53.676Z,87.70
2018-01-20T13:02:28.257Z,88.00
2018-01-20T13:05:01.854Z,87.70
2018-01-20T13:07:36.143Z,90.30
2018-01-20T13:10:10.717Z,91.30
2018-01-20T13:12:44.559Z,91.30
2018-01-20T13:15:18.176Z,91.20
2018-01-20T13:17:51.849Z,91.20
2018-01-20T13:20:25.413Z,87.00
2018-01-20T13:22:59.902Z,91.00
2018-01-20T13:25:33.736Z,91.00
2018-01-20T13:28:07.423Z,89.60
2018-01-20T13:30:42.026Z,87.60
2018-01-20T13:33:16.530Z,88.10
2018-01-20T13:35:50.093Z,87.40
2018-01-20T13:38:23.645Z,84.90
2018-01-20T13:40:57.231Z,90.20
2018-01-20T13:43:30.967Z,87.60
2018-01-20T13:46:04.691Z,91.80
2018-01-20T13:48:39.737Z,89.70
2018-01-20T13:51:13.466Z,89.00
2018-01-20T13:53:47.031Z,92.00
2018-01-20T13:56:20.591Z,93.30
2018-01-20T13:58:54.191Z,95.70
2018-01-20T14:01:27.681Z,95.70
2018-01-20T14:04:01.226Z,95.00
2018-01-20T14:06:34.844Z,95.80
2018-01-20T14:09:08.440Z,97.40
2018-01-20T14:11:42.077Z,95.90
2018-01-20T14:14:15.663Z,95.50
2018-01-20T14:16:49.337Z,94.60
2018-01-20T14:19:23.166Z,95.40
2018-01-20T14:21:57.205Z,94.70
2018-01-20T14:24:30.887Z,94.50
2018-01-20T14:27:04.452Z,93.70
2018-01-20T14:29:37.997Z,94.60
2018-01-20T14:32:11.591Z,94.80
2018-01-20T14:34:45.119Z,95.80
2018-01-20T14:37:19.634Z,95.50
2018-01-20T14:39:53.207Z,95.50
2018-01-20T14:42:26.790Z,95.20
2018-01-20T14:45:01.255Z,94.80
2018-01-20T14:47:34.794Z,94.80
2018-01-20T14:50:08.332Z,97.30
2018-01-20T14:52:41.912Z,97.00
2018-01-20T14:55:15.511Z,98.70
2018-01-20T14:57:49.123Z,97.80
2018-01-20T15:00:23.460Z,97.70
2018-01-20T15:02:57.012Z,97.70
2018-01-20T15:05:30.540Z,96.60
2018-01-20T15:08:04.939Z,92.10
2018-01-20T15:10:39.637Z,90.70
2018-01-20T15:13:13.265Z,90.50
2018-01-20T15:15:46.775Z,92.10
2018-01-20T15:18:20.265Z,92.70
2018-01-20T15:20:54.008Z,91.60
2018-01-20T15:23:27.575Z,82.50
2018-01-20T15:26:01.183Z,82.20
2018-01-20T15:28:34.748Z,85.60
2018-01-20T15:31:08.294Z,84.80
2018-01-20T15:33:41.997Z,84.50
2018-01-20T15:36:15.556Z,89.30
2018-01-20T15:38:49.885Z,89.70
2018-01-20T15:41:24.446Z,92.80
2018-01-20T15:43:58.252Z,92.70
2018-01-20T15:46:31.802Z,95.20
2018-01-20T15:49:06.331Z,92.80
2018-01-20T15:51:40.086Z,92.70
2018-01-20T15:54:14.371Z,97.80
2018-01-20T15:56:48.740Z,96.00
2018-01-20T15:59:22.488Z,95.90
2018-01-20T16:01:56.473Z,94.20
2018-01-20T16:04:30.240Z,93.40
2018-01-20T16:07:03.776Z,95.50
2018-01-20T16:09:37.528Z,98.60
2018-01-20T16:12:11.147Z,97.80
2018-01-20T16:14:44.849Z,96.20
2018-01-20T16:17:18.391Z,97.30
2018-01-20T16:19:51.981Z,97.80
2018-01-20T16:22:25.493Z,97.90
2018-01-20T16:24:59.110Z,98.50
2018-01-20T16:27:32.672Z,97.60
2018-01-20T16:30:06.251Z,94.40
2018-01-20T16:32:39.834Z,94.40
2018-01-20T16:35:13.397Z,95.10
2018-01-20T16:37:47.046Z,95.90
2018-01-20T16:40:20.604Z,95.10
2018-01-20T16:42:54.160Z,95.90
2018-01-20T16:45:27.826Z,96.10
2018-01-20T16:48:01.408Z,94.50
2018-01-20T16:50:35.046Z,93.60
2018-01-20T16:53:08.715Z,94.10
2018-01-20T16:55:42.299Z,93.50
2018-01-20T16:58:15.900Z,94.70
2018-01-20T17:00:49.501Z,93.60
2018-01-20T17:03:23.069Z,97.50
2018-01-20T17:05:56.695Z,96.00
2018-01-20T17:08:30.215Z,98.00
2018-01-20T17:11:03.923Z,97.50
2018-01-20T17:13:37.493Z,95.10
2018-01-20T17:16:11.144Z,96.70
2018-01-20T17:18:44.692Z,98.50
2018-01-20T17:21:18.344Z,99.90
2018-01-20T17:23:51.922Z,99.90
2018-01-20T17:26:25.483Z,99.90
2018-01-20T17:28:58.998Z,99.90
2018-01-20T17:31:33.519Z,99.90
2018-01-20T17:34:07.120Z,99.90
2018-01-20T17:36:40.810Z,99.90
2018-01-20T17:39:14.340Z,99.90
2018-01-20T17:41:47.932Z,99.90
2018-01-20T17:44:21.648Z,99.90
2018-01-20T17:46:55.390Z,99.90
2018-01-20T17:49:29.727Z,99.90
2018-01-20T17:52:03.980Z,99.90
2018-01-20T17:54:37.614Z,99.90
2018-01-20T17:57:11.189Z,99.90
2018-01-20T17:59:44.856Z,99.90
2018-01-20T18:02:19.329Z,99.90
2018-01-20T18:04:53.028Z,99.90
2018-01-20T18:07:26.591Z,99.90
2018-01-20T18:10:00.344Z,99.90
2018-01-20T18:12:33.928Z,99.90
2018-01-20T18:15:07.499Z,99.90
2018-01-20T18:17:41.142Z,99.90
2018-01-20T18:20:14.700Z,99.90
2018-01-20T18:22:48.196Z,99.90
2018-01-20T18:25:21.733Z,99.90
2018-01-20T18:27:55.323Z,99.90
2018-01-20T18:30:29.850Z,99.90
2018-01-20T18:33:03.647Z,99.90
2018-01-20T18:35:38.000Z,99.90
2018-01-20T18:38:12.393Z,99.90
2018-01-20T18:40:46.143Z,99.90
2018-01-20T18:43:19.606Z,99.90
2018-01-20T18:45:53.182Z,99.90
2018-01-20T18:48:26.732Z,99.90
2018-01-20T18:51:00.311Z,99.90
2018-01-20T18:53:33.871Z,99.90
2018-01-20T18:56:07.608Z,99.90
2018-01-20T18:58:41.112Z,99.90
2018-01-20T19:01:14.730Z,99.90
2018-01-20T19:03:48.541Z,99.90
2018-01-20T19:06:22.213Z,99.90
2018-01-20T19:08:55.935Z,99.90
2018-01-20T19:11:29.740Z,99.90
2018-01-20T19:14:03.484Z,99.90
2018-01-20T19:16:37.068Z,99.90
2018-01-20T19:19:10.667Z,99.90
2018-01-20T19:21:44.248Z,99.90
2018-01-20T19:24:18.555Z,99.90
2018-01-20T19:26:52.210Z,99.90
2018-01-20T19:29:25.954Z,99.90
2018-01-20T19:31:59.503Z,99.90
2018-01-20T19:34:33.092Z,99.90
2018-01-20T19:37:07.548Z,99.90
2018-01-20T19:39:41.194Z,99.90
2018-01-20T19:42:14.796Z,99.90
2018-01-20T19:44:48.317Z,99.90
2018-01-20T19:47:21.990Z,99.90
2018-01-20T19:49:55.635Z,99.90
2018-01-20T19:52:29.306Z,99.90
2018-01-20T19:55:03.567Z,99.90
2018-01-20T19:57:37.322Z,99.90
2018-01-20T20:00:11.089Z,99.90
2018-01-20T20:02:44.721Z,99.90
2018-01-20T20:05:18.399Z,99.90
2018-01-20T20:07:52.058Z,99.90
2018-01-20T20:10:25.850Z,99.90
2018-01-20T20:12:59.573Z,99.90
2018-01-20T20:15:33.252Z,99.90
2018-01-20T20:18:07.006Z,99.90
2018-01-20T20:20:40.723Z,99.90
2018-01-20T20:23:14.288Z,99.90
2018-01-20T20:25:47.886Z,99.90
2018-01-20T20:28:27.611Z,99.90
2018-01-20T20:31:01.297Z,99.90
2018-01-20T20:33:34.942Z,99.90
2018-01-20T20:36:08.594Z,99.90
2018-01-20T20:38:42.200Z,99.90
2018-01-20T20:41:16.736Z,99.90
2018-01-20T20:43:50.321Z,99.90
2018-01-20T20:46:23.916Z,99.90
2018-01-20T20:48:57.546Z,99.90
2018-01-20T20:51:31.687Z,99.90
2018-01-20T20:54:05.366Z,99.90
2018-01-20T20:56:39.763Z,99.90
2018-01-20T20:59:13.346Z,99.90
2018-01-20T21:01:47.681Z,99.90
2018-01-20T21:04:21.347Z,99.90
2018-01-20T21:06:55.002Z,99.90
2018-01-20T21:09:29.554Z,99.90
2018-01-20T21:12:03.986Z,99.90
2018-01-20T21:14:37.592Z,99.90
2018-01-20T21:17:11.231Z,99.90
2018-01-20T21:19:45.569Z,99.90
2018-01-20T21:22:19.192Z,99.90
2018-01-20T21:24:52.843Z,99.90
2018-01-20T21:27:26.673Z,99.90
2018-01-20T21:30:00.343Z,99.90
2018-01-20T21:32:33.896Z,99.90
2018-01-20T21:35:08.379Z,99.90
2018-01-20T21:37:42.171Z,99.90
2018-01-20T21:40:16.710Z,99.90
2018-01-20T21:42:50.318Z,99.90
2018-01-20T21:45:24.124Z,99.90
2018-01-20T21:47:57.724Z,99.90
2018-01-20T21:50:31.485Z,99.90
2018-01-20T21:53:05.179Z,99.90
2018-01-20T21:55:38.987Z,99.90
2018-01-20T21:58:12.610Z,99.90
2018-01-20T22:00:47.127Z,99.90
2018-01-20T22:03:20.705Z,99.90
2018-01-20T22:05:54.346Z,99.90
2018-01-20T22:08:27.951Z,99.90
2018-01-20T22:11:01.518Z,99.90
2018-01-20T22:13:35.239Z,99.90
2018-01-20T22:16:08.856Z,99.90
2018-01-20T22:18:42.576Z,99.90
2018-01-20T22:21:16.274Z,99.90
2018-01-20T22:23:49.964Z,99.90
2018-01-20T22:26:23.581Z,99.90
2018-01-20T22:28:57.158Z,99.90
2018-01-20T22:31:30.850Z,99.90
2018-01-20T22:34:04.452Z,99.90
2018-01-20T22:36:37.959Z,99.90
2018-01-20T22:39:11.575Z,99.90
2018-01-20T22:41:45.149Z,99.90
2018-01-20T22:44:18.684Z,99.90
2018-01-20T22:46:52.301Z,99.90
2018-01-20T22:49:25.946Z,99.90
2018-01-20T22:51:59.554Z,99.90
2018-01-20T22:54:33.043Z,99.90
2018-01-20T22:57:06.692Z,99.90
2018-01-20T22:59:40.357Z,99.90
2018-01-20T23:02:13.974Z,99.90
2018-01-20T23:04:47.586Z,99.90
2018-01-20T23:07:21.156Z,99.90
2018-01-20T23:09:55.736Z,99.90
2018-01-20T23:12:29.423Z,99.90
2018-01-20T23:15:03.018Z,99.90
2018-01-20T23:17:36.599Z,99.90
2018-01-20T23:20:10.189Z,99.90
2018-01-20T23:22:43.883Z,99.90
2018-01-20T23:25:17.424Z,99.90
2018-01-20T23:27:51.039Z,99.90
2018-01-20T23:30:24.769Z,99.90
2018-01-20T23:32:58.566Z,99.90
2018-01-20T23:35:32.071Z,99.90
2018-01-20T23:38:06.381Z,99.90
2018-01-20T23:40:39.967Z,99.90
2018-01-20T23:43:13.604Z,99.90
2018-01-20T23:45:47.391Z,99.90
2018-01-20T23:48:20.979Z,99.90
2018-01-20T23:50:54.605Z,99.90
2018-01-20T23:53:28.174Z,99.90
2018-01-20T23:56:01.793Z,99.90
2018-01-20T23:58:35.327Z,99.90
